Eships Dana — ZDJT6 — position and weather

sailwx.info

Track history (hours):
 
Tides and Currents Weather Stations Pressure Air Temp Water Temp Dewpoint Dewpoint Depression Visibility Wind Speed Wind Dir Waves Ship Positions

Eships Dana

Last reported at 2014-Oct-24 07:31 UTC. Time now 2014-Oct-24 08:32 UTC.
Position N 49°34' W 000°07'.

Length 116 m; draft 6.7 m.

Type: Tanker. MMSI: 236566000.

Date/timePositionNaut miles runAvg speedWind from/ knotsBaromVisibWave heightAir tempDewpointWater temp
2014-Oct-24 07:31N 49°34' W 000°07'0 0.0
2014-Oct-24 06:31N 49°34' W 000°07'0 0.0
2014-Oct-24 05:31N 49°34' W 000°07'0 0.1
2014-Oct-24 04:31N 49°34' W 000°07'0 0.0
2014-Oct-24 03:31N 49°34' W 000°07'0 0.0
2014-Oct-24 02:31N 49°34' W 000°07'0 0.0
2014-Oct-24 01:31N 49°34' W 000°07'0 0.0
2014-Oct-24 00:31N 49°34' W 000°07'0 0.0
2014-Oct-23 23:31N 49°34' W 000°07'0 0.0
2014-Oct-23 22:31N 49°34' W 000°07'0 0.0
2014-Oct-23 21:31N 49°34' W 000°07'0 0.0
2014-Oct-23 20:31N 49°34' W 000°07'0 0.0
2014-Oct-23 19:31N 49°34' W 000°07'0 0.0
2014-Oct-23 18:31N 49°34' W 000°07'0 0.0
2014-Oct-23 17:31N 49°34' W 000°07'0 0.1
2014-Oct-23 16:31N 49°34' W 000°07'0 0.1
2014-Oct-23 15:31N 49°34' W 000°07'0 0.0
2014-Oct-23 14:31N 49°34' W 000°07'0 0.1
2014-Oct-23 13:31N 49°34' W 000°07'0 0.0
2014-Oct-23 12:31N 49°34' W 000°07'0 0.1
2014-Oct-23 11:31N 49°34' W 000°07'0 0.0
2014-Oct-23 10:31N 49°34' W 000°07'0 0.0
2014-Oct-23 09:31N 49°34' W 000°07'0 0.0
2014-Oct-23 08:31N 49°34' W 000°07'0 0.0
2014-Oct-23 07:31N 49°34' W 000°07'0 0.0
2014-Oct-23 06:31N 49°34' W 000°07'0 0.0
2014-Oct-23 05:31N 49°34' W 000°07'0 0.0
2014-Oct-23 04:31N 49°34' W 000°07'0 0.1
2014-Oct-23 03:31N 49°34' W 000°07'0 0.1
2014-Oct-23 02:31N 49°34' W 000°07'0 0.1
2014-Oct-23 01:31N 49°34' W 000°07'0 0.1
2014-Oct-23 00:31N 49°34' W 000°07'0 0.0
2014-Oct-22 23:31N 49°34' W 000°07'0 0.0
2014-Oct-22 22:31N 49°34' W 000°07'0 0.0
2014-Oct-22 21:31N 49°34' W 000°07'0 0.0
2014-Oct-22 20:31N 49°34' W 000°07'0 0.0
2014-Oct-22 19:31N 49°34' W 000°07'0 0.0
2014-Oct-22 18:31N 49°34' W 000°07'0 0.0
2014-Oct-22 17:31N 49°34' W 000°07'0 0.0
2014-Oct-22 16:31N 49°34' W 000°07'0 0.0
2014-Oct-22 15:31N 49°34' W 000°07'0 0.1
2014-Oct-22 14:31N 49°34' W 000°07'0 0.0
2014-Oct-22 13:31N 49°34' W 000°07'0 0.0
2014-Oct-22 12:31N 49°34' W 000°07'0 0.0
2014-Oct-22 11:31N 49°34' W 000°07'0 0.0
2014-Oct-22 10:31N 49°34' W 000°07'0 0.0
2014-Oct-22 09:31N 49°34' W 000°07'0 0.0
2014-Oct-22 08:25N 49°34' W 000°07'0 0.0
2014-Oct-22 07:31N 49°34' W 000°07'0 0.0
2014-Oct-22 06:31N 49°34' W 000°07'0 0.3
2014-Oct-22 05:33N 49°34' W 000°07'3 3.1
2014-Oct-22 04:33N 49°37' W 000°07'0 0.4
2014-Oct-22 03:33N 49°37' W 000°07'2 1.6
2014-Oct-22 02:33N 49°38' W 000°08'1 1.5
2014-Oct-22 01:33N 49°40' W 000°08'4 4.3
2014-Oct-22 00:33N 49°36' W 000°13'1 1.1
2014-Oct-21 23:33N 49°37' W 000°13'2 1.5
2014-Oct-21 22:33N 49°39' W 000°14'3 2.6
2014-Oct-21 21:33N 49°39' W 000°09'4 3.8
2014-Oct-21 20:33N 49°36' W 000°05'3 2.6
2014-Oct-21 19:33N 49°38' W 000°09'1 0.7
2014-Oct-21 18:33N 49°37' W 000°10'2 2.2
2014-Oct-21 17:33N 49°36' W 000°07'0 0.4
2014-Oct-21 16:33N 49°36' W 000°07'2 2.4
2014-Oct-21 15:33N 49°38' W 000°10'3 3.4
2014-Oct-21 14:33N 49°36' W 000°06'2 1.9
2014-Oct-21 13:33N 49°37' W 000°08'1 1.1
2014-Oct-21 12:33N 49°37' W 000°10'2 2.2
2014-Oct-21 11:33N 49°35' W 000°11'2 1.9
2014-Oct-21 10:33N 49°36' W 000°09'4 3.8
2014-Oct-21 09:33N 49°37' W 000°03'2 2.3
2014-Oct-21 08:33N 49°37' W 000°06'3 2.9
2014-Oct-21 07:33N 49°36' W 000°11'3 2.8
2014-Oct-21 06:33N 49°35' W 000°06'1 1.0
2014-Oct-21 05:33N 49°34' W 000°07'1 0.5
2014-Oct-21 04:32N 49°34' W 000°07'0 0.0
2014-Oct-21 03:32N 49°34' W 000°07'0 0.0
2014-Oct-21 02:32N 49°34' W 000°07'0 0.0
2014-Oct-21 01:32N 49°34' W 000°07'0 0.0
2014-Oct-21 00:32N 49°34' W 000°07'0 0.0
2014-Oct-20 23:32N 49°34' W 000°07'0 0.0
2014-Oct-20 22:32N 49°34' W 000°07'0 0.0
2014-Oct-20 21:32N 49°34' W 000°07'0 0.0
2014-Oct-20 20:32N 49°34' W 000°07'0 0.0
2014-Oct-20 19:26N 49°34' W 000°07'0 0.0
2014-Oct-20 18:32N 49°34' W 000°07'0 0.0
2014-Oct-20 17:32N 49°34' W 000°07'0 0.0
2014-Oct-20 16:32N 49°34' W 000°07'0 0.0
2014-Oct-20 15:32N 49°34' W 000°07'0 0.0
2014-Oct-20 14:32N 49°34' W 000°07'0 0.0
2014-Oct-20 13:32N 49°34' W 000°07'0 0.0
2014-Oct-20 12:32N 49°34' W 000°07'0 0.0
2014-Oct-20 11:32N 49°34' W 000°07'0 0.0
2014-Oct-20 10:32N 49°34' W 000°07'0 0.0
2014-Oct-20 09:32N 49°34' W 000°07'0 0.0
2014-Oct-20 08:32N 49°34' W 000°07'0 0.0
2014-Oct-20 07:32N 49°34' W 000°07'0 0.0
2014-Oct-20 06:32N 49°34' W 000°07'0 0.0
2014-Oct-20 05:32N 49°34' W 000°07'0 0.0
2014-Oct-20 04:32N 49°34' W 000°07'0 0.0
2014-Oct-20 03:32N 49°34' W 000°07'0 0.0
2014-Oct-20 02:32N 49°34' W 000°07'0 0.0
2014-Oct-20 01:32N 49°34' W 000°07'0 0.0
2014-Oct-20 00:32N 49°34' W 000°07'0 0.0
2014-Oct-19 23:32N 49°34' W 000°07'0 0.1
2014-Oct-19 22:32N 49°34' W 000°07'0 0.0
2014-Oct-19 21:32N 49°34' W 000°07'0 0.0
2014-Oct-19 20:32N 49°34' W 000°07'0 0.0
2014-Oct-19 19:32N 49°34' W 000°07'0 0.0
2014-Oct-19 18:32N 49°34' W 000°07'0 0.0
2014-Oct-19 17:32N 49°34' W 000°07'0 0.0
2014-Oct-19 16:23N 49°34' W 000°07'0 0.0
2014-Oct-19 15:32N 49°34' W 000°07'0 0.0
2014-Oct-19 14:32N 49°34' W 000°07'0 0.0
2014-Oct-19 13:32N 49°34' W 000°07'0 0.0
2014-Oct-19 12:32N 49°34' W 000°07'0 0.0
2014-Oct-19 11:32N 49°34' W 000°07'0 0.0
2014-Oct-19 10:26N 49°34' W 000°07'0 0.0
2014-Oct-19 09:32N 49°34' W 000°07'0 0.0
2014-Oct-19 08:32N 49°34' W 000°07'0 0.0
2014-Oct-19 07:32N 49°34' W 000°07'0 0.0
2014-Oct-19 06:32N 49°34' W 000°07'0 0.0
2014-Oct-19 05:32N 49°34' W 000°07'0 0.0
2014-Oct-19 04:32N 49°34' W 000°07'0 0.0
2014-Oct-19 03:32N 49°34' W 000°07'0 0.0
2014-Oct-19 02:32N 49°34' W 000°07'0 0.0
2014-Oct-19 01:32N 49°34' W 000°07'2 2.4
2014-Oct-19 00:33N 49°32' W 000°06'1110.5
2014-Oct-18 23:33N 49°28' E 000°09'2 2.0
2014-Oct-18 22:33N 49°29' E 000°12'0 0.0
2014-Oct-18 21:31N 49°29' E 000°12'0 0.0
2014-Oct-18 20:31N 49°29' E 000°12'0 0.0
2014-Oct-18 19:31N 49°29' E 000°12'0 0.0
2014-Oct-18 18:31N 49°29' E 000°12'0 0.0
2014-Oct-18 17:31N 49°29' E 000°12'0 0.0
2014-Oct-18 16:31N 49°29' E 000°12'0 0.0
2014-Oct-18 15:31N 49°29' E 000°12'0 0.0
2014-Oct-18 14:31N 49°29' E 000°12'0 0.0
2014-Oct-18 13:31N 49°29' E 000°12'0 0.0
2014-Oct-18 12:31N 49°29' E 000°12'0 0.0
2014-Oct-18 11:31N 49°29' E 000°12'0 0.0
2014-Oct-18 10:22N 49°29' E 000°12'0 0.0
2014-Oct-18 09:31N 49°29' E 000°12'0 0.0
2014-Oct-18 08:31N 49°29' E 000°12'0 0.0
2014-Oct-18 07:31N 49°29' E 000°12'0 0.0
2014-Oct-18 06:31N 49°29' E 000°12'0 0.0
2014-Oct-18 05:31N 49°29' E 000°12'0 0.0
2014-Oct-18 04:31N 49°29' E 000°12'0 0.0
2014-Oct-18 03:31N 49°29' E 000°12'0 0.0
2014-Oct-18 02:31N 49°29' E 000°12'0 0.0
2014-Oct-18 01:28N 49°29' E 000°12'0 0.0
2014-Oct-18 00:31N 49°29' E 000°12'0 0.0
2014-Oct-17 23:31N 49°29' E 000°12'0 0.0
2014-Oct-17 22:31N 49°29' E 000°12'0 0.0
2014-Oct-17 21:31N 49°29' E 000°12'0 0.0
2014-Oct-17 20:31N 49°29' E 000°12'0 0.0
2014-Oct-17 19:31N 49°29' E 000°12'0 0.0
2014-Oct-17 18:31N 49°29' E 000°12'0 0.0
2014-Oct-17 17:31N 49°29' E 000°12'0 0.0
2014-Oct-17 16:31N 49°29' E 000°12'0 0.0
2014-Oct-17 15:31N 49°29' E 000°12'0 0.0
2014-Oct-17 14:31N 49°29' E 000°12'0 0.0
2014-Oct-17 13:31N 49°29' E 000°12'0 0.0
2014-Oct-17 12:31N 49°29' E 000°12'0 0.0
2014-Oct-17 11:31N 49°29' E 000°12'0 0.0
2014-Oct-17 10:31N 49°29' E 000°12'0 0.0
2014-Oct-17 09:31N 49°29' E 000°12'0 0.0
2014-Oct-17 08:31N 49°29' E 000°12'0 0.0
2014-Oct-17 07:31N 49°29' E 000°12'0 0.0
2014-Oct-17 06:31N 49°29' E 000°12'0 0.0
2014-Oct-17 05:31N 49°29' E 000°12'0 0.0
2014-Oct-17 04:31N 49°29' E 000°12'0 0.0
2014-Oct-17 03:33N 49°29' E 000°12'1 0.8
2014-Oct-17 02:31N 49°28' E 000°11'0 0.0
2014-Oct-17 01:31N 49°28' E 000°11'0 0.0
2014-Oct-17 00:28N 49°28' E 000°11'0 0.0
2014-Oct-16 23:28N 49°28' E 000°11'0 0.0
2014-Oct-16 22:25N 49°28' E 000°11'0 0.0
2014-Oct-16 21:28N 49°28' E 000°11'0 0.0
2014-Oct-16 20:28N 49°28' E 000°11'0 0.0
2014-Oct-16 19:31N 49°28' E 000°11'0 0.0
2014-Oct-16 18:28N 49°28' E 000°11'0 0.0
2014-Oct-16 17:22N 49°28' E 000°11'0 0.0
2014-Oct-16 16:31N 49°28' E 000°11'0 0.0
2014-Oct-16 15:25N 49°28' E 000°11'0 0.0
2014-Oct-16 14:31N 49°28' E 000°11'0 0.0
2014-Oct-16 13:28N 49°28' E 000°11'0 0.0
2014-Oct-16 12:28N 49°28' E 000°11'0 0.0
2014-Oct-16 11:31N 49°28' E 000°11'0 0.0
2014-Oct-16 10:28N 49°28' E 000°11'0 0.0
2014-Oct-16 09:28N 49°28' E 000°11'0 0.0
2014-Oct-16 08:28N 49°28' E 000°11'0 0.0
2014-Oct-16 07:28N 49°28' E 000°11'0 0.0
2014-Oct-16 06:19N 49°28' E 000°11'0 0.0
2014-Oct-16 05:28N 49°28' E 000°11'0 0.0
2014-Oct-16 04:28N 49°28' E 000°11'0 0.0
2014-Oct-16 03:28N 49°28' E 000°11'0 0.0
2014-Oct-16 02:28N 49°28' E 000°11'0 0.0
2014-Oct-16 01:28N 49°28' E 000°11'0 0.0
2014-Oct-16 00:31N 49°28' E 000°11'0 0.0
2014-Oct-15 23:28N 49°28' E 000°11'0 0.0
2014-Oct-15 22:28N 49°28' E 000°11'0 0.0
2014-Oct-15 21:22N 49°28' E 000°11'0 0.0
2014-Oct-15 20:28N 49°28' E 000°11'0 0.0
2014-Oct-15 19:28N 49°28' E 000°11'0 0.0
2014-Oct-15 18:31N 49°28' E 000°11'0 0.0
2014-Oct-15 17:22N 49°28' E 000°11'0 0.0
2014-Oct-15 16:28N 49°28' E 000°11'0 0.0
2014-Oct-15 15:28N 49°28' E 000°11'0 0.0
2014-Oct-15 14:28N 49°28' E 000°11'0 0.0
2014-Oct-15 13:28N 49°28' E 000°11'0 0.0
2014-Oct-15 12:25N 49°28' E 000°11'0 0.0
2014-Oct-15 11:19N 49°28' E 000°11'0 0.0
2014-Oct-15 10:25N 49°28' E 000°11'0 0.0
2014-Oct-15 09:28N 49°28' E 000°11'0 0.0
2014-Oct-15 08:31N 49°28' E 000°11'0 0.0
2014-Oct-15 07:31N 49°28' E 000°11'0 0.0
2014-Oct-15 06:28N 49°28' E 000°11'0 0.0
2014-Oct-15 05:16N 49°28' E 000°11'0 0.0
2014-Oct-15 04:28N 49°28' E 000°11'0 0.0
2014-Oct-15 03:31N 49°28' E 000°11'0 0.0
2014-Oct-15 02:04N 49°28' E 000°11'0 0.0
2014-Oct-15 01:28N 49°28' E 000°11'0 0.0
2014-Oct-15 00:28N 49°28' E 000°11'0 0.0
2014-Oct-14 23:28N 49°28' E 000°11'0 0.0
2014-Oct-14 22:28N 49°28' E 000°11'0 0.0
2014-Oct-14 21:28N 49°28' E 000°11'0 0.0
2014-Oct-14 20:31N 49°28' E 000°11'0 0.0
2014-Oct-14 19:28N 49°28' E 000°11'0 0.0
2014-Oct-14 18:28N 49°28' E 000°11'0 0.0
2014-Oct-14 17:28N 49°28' E 000°11'0 0.0
2014-Oct-14 16:31N 49°28' E 000°11'0 0.0
2014-Oct-14 15:31N 49°28' E 000°11'0 0.0
2014-Oct-14 14:28N 49°28' E 000°11'0 0.0
2014-Oct-14 13:31N 49°28' E 000°11'0 0.0
2014-Oct-14 12:31N 49°28' E 000°11'0 0.0
2014-Oct-14 11:28N 49°28' E 000°11'0 0.0
2014-Oct-14 10:25N 49°28' E 000°11'0 0.0
2014-Oct-14 09:22N 49°28' E 000°11'0 0.0
2014-Oct-14 08:28N 49°28' E 000°11'  
Track history (hours):
 
Tides and Currents Weather Stations Pressure Air Temp Water Temp Dewpoint Dewpoint Depression Visibility Wind Speed Wind Dir Waves Ship Positions

Eships Dana

Last reported at 2014-Oct-24 07:31 UTC. Time now 2014-Oct-24 08:32 UTC.
Position N 49°34' W 000°07'.

Length 116 m; draft 6.7 m.

Type: Tanker. MMSI: 236566000.

Date/timePositionNaut miles runAvg speedWind from/ knotsBaromVisibWave heightAir tempDewpointWater temp
2014-Oct-24 07:31N 49°34' W 000°07'0 0.0
2014-Oct-24 06:31N 49°34' W 000°07'0 0.0
2014-Oct-24 05:31N 49°34' W 000°07'0 0.1
2014-Oct-24 04:31N 49°34' W 000°07'0 0.0
2014-Oct-24 03:31N 49°34' W 000°07'0 0.0
2014-Oct-24 02:31N 49°34' W 000°07'0 0.0
2014-Oct-24 01:31N 49°34' W 000°07'0 0.0
2014-Oct-24 00:31N 49°34' W 000°07'0 0.0
2014-Oct-23 23:31N 49°34' W 000°07'0 0.0
2014-Oct-23 22:31N 49°34' W 000°07'0 0.0
2014-Oct-23 21:31N 49°34' W 000°07'0 0.0
2014-Oct-23 20:31N 49°34' W 000°07'0 0.0
2014-Oct-23 19:31N 49°34' W 000°07'0 0.0
2014-Oct-23 18:31N 49°34' W 000°07'0 0.0
2014-Oct-23 17:31N 49°34' W 000°07'0 0.1
2014-Oct-23 16:31N 49°34' W 000°07'0 0.1
2014-Oct-23 15:31N 49°34' W 000°07'0 0.0
2014-Oct-23 14:31N 49°34' W 000°07'0 0.1
2014-Oct-23 13:31N 49°34' W 000°07'0 0.0
2014-Oct-23 12:31N 49°34' W 000°07'0 0.1
2014-Oct-23 11:31N 49°34' W 000°07'0 0.0
2014-Oct-23 10:31N 49°34' W 000°07'0 0.0
2014-Oct-23 09:31N 49°34' W 000°07'0 0.0
2014-Oct-23 08:31N 49°34' W 000°07'0 0.0
2014-Oct-23 07:31N 49°34' W 000°07'0 0.0
2014-Oct-23 06:31N 49°34' W 000°07'0 0.0
2014-Oct-23 05:31N 49°34' W 000°07'0 0.0
2014-Oct-23 04:31N 49°34' W 000°07'0 0.1
2014-Oct-23 03:31N 49°34' W 000°07'0 0.1
2014-Oct-23 02:31N 49°34' W 000°07'0 0.1
2014-Oct-23 01:31N 49°34' W 000°07'0 0.1
2014-Oct-23 00:31N 49°34' W 000°07'0 0.0
2014-Oct-22 23:31N 49°34' W 000°07'0 0.0
2014-Oct-22 22:31N 49°34' W 000°07'0 0.0
2014-Oct-22 21:31N 49°34' W 000°07'0 0.0
2014-Oct-22 20:31N 49°34' W 000°07'0 0.0
2014-Oct-22 19:31N 49°34' W 000°07'0 0.0
2014-Oct-22 18:31N 49°34' W 000°07'0 0.0
2014-Oct-22 17:31N 49°34' W 000°07'0 0.0
2014-Oct-22 16:31N 49°34' W 000°07'0 0.0
2014-Oct-22 15:31N 49°34' W 000°07'0 0.1
2014-Oct-22 14:31N 49°34' W 000°07'0 0.0
2014-Oct-22 13:31N 49°34' W 000°07'0 0.0
2014-Oct-22 12:31N 49°34' W 000°07'0 0.0
2014-Oct-22 11:31N 49°34' W 000°07'0 0.0
2014-Oct-22 10:31N 49°34' W 000°07'0 0.0
2014-Oct-22 09:31N 49°34' W 000°07'0 0.0
2014-Oct-22 08:25N 49°34' W 000°07'0 0.0
2014-Oct-22 07:31N 49°34' W 000°07'0 0.0
2014-Oct-22 06:31N 49°34' W 000°07'0 0.3
2014-Oct-22 05:33N 49°34' W 000°07'3 3.1
2014-Oct-22 04:33N 49°37' W 000°07'0 0.4
2014-Oct-22 03:33N 49°37' W 000°07'2 1.6
2014-Oct-22 02:33N 49°38' W 000°08'1 1.5
2014-Oct-22 01:33N 49°40' W 000°08'4 4.3
2014-Oct-22 00:33N 49°36' W 000°13'1 1.1
2014-Oct-21 23:33N 49°37' W 000°13'2 1.5
2014-Oct-21 22:33N 49°39' W 000°14'3 2.6
2014-Oct-21 21:33N 49°39' W 000°09'4 3.8
2014-Oct-21 20:33N 49°36' W 000°05'3 2.6
2014-Oct-21 19:33N 49°38' W 000°09'1 0.7
2014-Oct-21 18:33N 49°37' W 000°10'2 2.2
2014-Oct-21 17:33N 49°36' W 000°07'0 0.4
2014-Oct-21 16:33N 49°36' W 000°07'2 2.4
2014-Oct-21 15:33N 49°38' W 000°10'3 3.4
2014-Oct-21 14:33N 49°36' W 000°06'2 1.9
2014-Oct-21 13:33N 49°37' W 000°08'1 1.1
2014-Oct-21 12:33N 49°37' W 000°10'2 2.2
2014-Oct-21 11:33N 49°35' W 000°11'2 1.9
2014-Oct-21 10:33N 49°36' W 000°09'4 3.8
2014-Oct-21 09:33N 49°37' W 000°03'2 2.3
2014-Oct-21 08:33N 49°37' W 000°06'3 2.9
2014-Oct-21 07:33N 49°36' W 000°11'3 2.8
2014-Oct-21 06:33N 49°35' W 000°06'1 1.0
2014-Oct-21 05:33N 49°34' W 000°07'1 0.5
2014-Oct-21 04:32N 49°34' W 000°07'0 0.0
2014-Oct-21 03:32N 49°34' W 000°07'0 0.0
2014-Oct-21 02:32N 49°34' W 000°07'0 0.0
2014-Oct-21 01:32N 49°34' W 000°07'0 0.0
2014-Oct-21 00:32N 49°34' W 000°07'0 0.0
2014-Oct-20 23:32N 49°34' W 000°07'0 0.0
2014-Oct-20 22:32N 49°34' W 000°07'0 0.0
2014-Oct-20 21:32N 49°34' W 000°07'0 0.0
2014-Oct-20 20:32N 49°34' W 000°07'0 0.0
2014-Oct-20 19:26N 49°34' W 000°07'0 0.0
2014-Oct-20 18:32N 49°34' W 000°07'0 0.0
2014-Oct-20 17:32N 49°34' W 000°07'0 0.0
2014-Oct-20 16:32N 49°34' W 000°07'0 0.0
2014-Oct-20 15:32N 49°34' W 000°07'0 0.0
2014-Oct-20 14:32N 49°34' W 000°07'0 0.0
2014-Oct-20 13:32N 49°34' W 000°07'0 0.0
2014-Oct-20 12:32N 49°34' W 000°07'0 0.0
2014-Oct-20 11:32N 49°34' W 000°07'0 0.0
2014-Oct-20 10:32N 49°34' W 000°07'0 0.0
2014-Oct-20 09:32N 49°34' W 000°07'0 0.0
2014-Oct-20 08:32N 49°34' W 000°07'0 0.0
2014-Oct-20 07:32N 49°34' W 000°07'0 0.0
2014-Oct-20 06:32N 49°34' W 000°07'0 0.0
2014-Oct-20 05:32N 49°34' W 000°07'0 0.0
2014-Oct-20 04:32N 49°34' W 000°07'0 0.0
2014-Oct-20 03:32N 49°34' W 000°07'0 0.0
2014-Oct-20 02:32N 49°34' W 000°07'0 0.0
2014-Oct-20 01:32N 49°34' W 000°07'0 0.0
2014-Oct-20 00:32N 49°34' W 000°07'0 0.0
2014-Oct-19 23:32N 49°34' W 000°07'0 0.1
2014-Oct-19 22:32N 49°34' W 000°07'0 0.0
2014-Oct-19 21:32N 49°34' W 000°07'0 0.0
2014-Oct-19 20:32N 49°34' W 000°07'0 0.0
2014-Oct-19 19:32N 49°34' W 000°07'0 0.0
2014-Oct-19 18:32N 49°34' W 000°07'0 0.0
2014-Oct-19 17:32N 49°34' W 000°07'0 0.0
2014-Oct-19 16:23N 49°34' W 000°07'0 0.0
2014-Oct-19 15:32N 49°34' W 000°07'0 0.0
2014-Oct-19 14:32N 49°34' W 000°07'0 0.0
2014-Oct-19 13:32N 49°34' W 000°07'0 0.0
2014-Oct-19 12:32N 49°34' W 000°07'0 0.0
2014-Oct-19 11:32N 49°34' W 000°07'0 0.0
2014-Oct-19 10:26N 49°34' W 000°07'0 0.0
2014-Oct-19 09:32N 49°34' W 000°07'0 0.0
2014-Oct-19 08:32N 49°34' W 000°07'0 0.0
2014-Oct-19 07:32N 49°34' W 000°07'0 0.0
2014-Oct-19 06:32N 49°34' W 000°07'0 0.0
2014-Oct-19 05:32N 49°34' W 000°07'0 0.0
2014-Oct-19 04:32N 49°34' W 000°07'0 0.0
2014-Oct-19 03:32N 49°34' W 000°07'0 0.0
2014-Oct-19 02:32N 49°34' W 000°07'0 0.0
2014-Oct-19 01:32N 49°34' W 000°07'2 2.4
2014-Oct-19 00:33N 49°32' W 000°06'1110.5
2014-Oct-18 23:33N 49°28' E 000°09'2 2.0
2014-Oct-18 22:33N 49°29' E 000°12'0 0.0
2014-Oct-18 21:31N 49°29' E 000°12'0 0.0
2014-Oct-18 20:31N 49°29' E 000°12'0 0.0
2014-Oct-18 19:31N 49°29' E 000°12'0 0.0
2014-Oct-18 18:31N 49°29' E 000°12'0 0.0
2014-Oct-18 17:31N 49°29' E 000°12'0 0.0
2014-Oct-18 16:31N 49°29' E 000°12'0 0.0
2014-Oct-18 15:31N 49°29' E 000°12'0 0.0
2014-Oct-18 14:31N 49°29' E 000°12'0 0.0
2014-Oct-18 13:31N 49°29' E 000°12'0 0.0
2014-Oct-18 12:31N 49°29' E 000°12'0 0.0
2014-Oct-18 11:31N 49°29' E 000°12'0 0.0
2014-Oct-18 10:22N 49°29' E 000°12'0 0.0
2014-Oct-18 09:31N 49°29' E 000°12'0 0.0
2014-Oct-18 08:31N 49°29' E 000°12'0 0.0
2014-Oct-18 07:31N 49°29' E 000°12'0 0.0
2014-Oct-18 06:31N 49°29' E 000°12'0 0.0
2014-Oct-18 05:31N 49°29' E 000°12'0 0.0
2014-Oct-18 04:31N 49°29' E 000°12'0 0.0
2014-Oct-18 03:31N 49°29' E 000°12'0 0.0
2014-Oct-18 02:31N 49°29' E 000°12'0 0.0
2014-Oct-18 01:28N 49°29' E 000°12'0 0.0
2014-Oct-18 00:31N 49°29' E 000°12'0 0.0
2014-Oct-17 23:31N 49°29' E 000°12'0 0.0
2014-Oct-17 22:31N 49°29' E 000°12'0 0.0
2014-Oct-17 21:31N 49°29' E 000°12'0 0.0
2014-Oct-17 20:31N 49°29' E 000°12'0 0.0
2014-Oct-17 19:31N 49°29' E 000°12'0 0.0
2014-Oct-17 18:31N 49°29' E 000°12'0 0.0
2014-Oct-17 17:31N 49°29' E 000°12'0 0.0
2014-Oct-17 16:31N 49°29' E 000°12'0 0.0
2014-Oct-17 15:31N 49°29' E 000°12'0 0.0
2014-Oct-17 14:31N 49°29' E 000°12'0 0.0
2014-Oct-17 13:31N 49°29' E 000°12'0 0.0
2014-Oct-17 12:31N 49°29' E 000°12'0 0.0
2014-Oct-17 11:31N 49°29' E 000°12'0 0.0
2014-Oct-17 10:31N 49°29' E 000°12'0 0.0
2014-Oct-17 09:31N 49°29' E 000°12'0 0.0
2014-Oct-17 08:31N 49°29' E 000°12'0 0.0
2014-Oct-17 07:31N 49°29' E 000°12'0 0.0
2014-Oct-17 06:31N 49°29' E 000°12'0 0.0
2014-Oct-17 05:31N 49°29' E 000°12'0 0.0
2014-Oct-17 04:31N 49°29' E 000°12'0 0.0
2014-Oct-17 03:33N 49°29' E 000°12'1 0.8
2014-Oct-17 02:31N 49°28' E 000°11'0 0.0
2014-Oct-17 01:31N 49°28' E 000°11'0 0.0
2014-Oct-17 00:28N 49°28' E 000°11'0 0.0
2014-Oct-16 23:28N 49°28' E 000°11'0 0.0
2014-Oct-16 22:25N 49°28' E 000°11'0 0.0
2014-Oct-16 21:28N 49°28' E 000°11'0 0.0
2014-Oct-16 20:28N 49°28' E 000°11'0 0.0
2014-Oct-16 19:31N 49°28' E 000°11'0 0.0
2014-Oct-16 18:28N 49°28' E 000°11'0 0.0
2014-Oct-16 17:22N 49°28' E 000°11'0 0.0
2014-Oct-16 16:31N 49°28' E 000°11'0 0.0
2014-Oct-16 15:25N 49°28' E 000°11'0 0.0
2014-Oct-16 14:31N 49°28' E 000°11'0 0.0
2014-Oct-16 13:28N 49°28' E 000°11'0 0.0
2014-Oct-16 12:28N 49°28' E 000°11'0 0.0
2014-Oct-16 11:31N 49°28' E 000°11'0 0.0
2014-Oct-16 10:28N 49°28' E 000°11'0 0.0
2014-Oct-16 09:28N 49°28' E 000°11'0 0.0
2014-Oct-16 08:28N 49°28' E 000°11'0 0.0
2014-Oct-16 07:28N 49°28' E 000°11'0 0.0
2014-Oct-16 06:19N 49°28' E 000°11'0 0.0
2014-Oct-16 05:28N 49°28' E 000°11'0 0.0
2014-Oct-16 04:28N 49°28' E 000°11'0 0.0
2014-Oct-16 03:28N 49°28' E 000°11'0 0.0
2014-Oct-16 02:28N 49°28' E 000°11'0 0.0
2014-Oct-16 01:28N 49°28' E 000°11'0 0.0
2014-Oct-16 00:31N 49°28' E 000°11'0 0.0
2014-Oct-15 23:28N 49°28' E 000°11'0 0.0
2014-Oct-15 22:28N 49°28' E 000°11'0 0.0
2014-Oct-15 21:22N 49°28' E 000°11'0 0.0
2014-Oct-15 20:28N 49°28' E 000°11'0 0.0
2014-Oct-15 19:28N 49°28' E 000°11'0 0.0
2014-Oct-15 18:31N 49°28' E 000°11'0 0.0
2014-Oct-15 17:22N 49°28' E 000°11'0 0.0
2014-Oct-15 16:28N 49°28' E 000°11'0 0.0
2014-Oct-15 15:28N 49°28' E 000°11'0 0.0
2014-Oct-15 14:28N 49°28' E 000°11'0 0.0
2014-Oct-15 13:28N 49°28' E 000°11'0 0.0
2014-Oct-15 12:25N 49°28' E 000°11'0 0.0
2014-Oct-15 11:19N 49°28' E 000°11'0 0.0
2014-Oct-15 10:25N 49°28' E 000°11'0 0.0
2014-Oct-15 09:28N 49°28' E 000°11'0 0.0
2014-Oct-15 08:31N 49°28' E 000°11'0 0.0
2014-Oct-15 07:31N 49°28' E 000°11'0 0.0
2014-Oct-15 06:28N 49°28' E 000°11'0 0.0
2014-Oct-15 05:16N 49°28' E 000°11'0 0.0
2014-Oct-15 04:28N 49°28' E 000°11'0 0.0
2014-Oct-15 03:31N 49°28' E 000°11'0 0.0
2014-Oct-15 02:04N 49°28' E 000°11'0 0.0
2014-Oct-15 01:28N 49°28' E 000°11'0 0.0
2014-Oct-15 00:28N 49°28' E 000°11'0 0.0
2014-Oct-14 23:28N 49°28' E 000°11'0 0.0
2014-Oct-14 22:28N 49°28' E 000°11'0 0.0
2014-Oct-14 21:28N 49°28' E 000°11'0 0.0
2014-Oct-14 20:31N 49°28' E 000°11'0 0.0
2014-Oct-14 19:28N 49°28' E 000°11'0 0.0
2014-Oct-14 18:28N 49°28' E 000°11'0 0.0
2014-Oct-14 17:28N 49°28' E 000°11'0 0.0
2014-Oct-14 16:31N 49°28' E 000°11'0 0.0
2014-Oct-14 15:31N 49°28' E 000°11'0 0.0
2014-Oct-14 14:28N 49°28' E 000°11'0 0.0
2014-Oct-14 13:31N 49°28' E 000°11'0 0.0
2014-Oct-14 12:31N 49°28' E 000°11'0 0.0
2014-Oct-14 11:28N 49°28' E 000°11'0 0.0
2014-Oct-14 10:25N 49°28' E 000°11'0 0.0
2014-Oct-14 09:22N 49°28' E 000°11'0 0.0
2014-Oct-14 08:28N 49°28' E 000°11'  

Dump ship's entire track history